createdAt,value
2019-04-04T00:02:28.564Z,16.20
2019-04-04T00:05:03.278Z,16.95
2019-04-04T00:07:38.077Z,14.13
2019-04-04T00:10:12.939Z,14.47
2019-04-04T00:16:33.647Z,14.93
2019-04-04T00:19:08.279Z,12.83
2019-04-04T00:21:42.946Z,14.60
2019-04-04T00:26:50.286Z,13.03
2019-04-04T00:29:25.769Z,13.78
2019-04-04T00:34:33.281Z,15.83
2019-04-04T00:37:07.947Z,19.90
2019-04-04T00:39:42.279Z,16.60
2019-04-04T00:42:17.483Z,12.58
2019-04-04T00:44:51.946Z,15.32
2019-04-04T00:47:26.338Z,15.38
2019-04-04T00:50:00.787Z,16.80
2019-04-04T00:52:35.288Z,14.18
2019-04-04T00:55:10.276Z,13.30
2019-04-04T00:57:44.696Z,15.45
2019-04-04T01:00:19.130Z,12.40
2019-04-04T01:02:53.675Z,13.55
2019-04-04T01:08:01.295Z,14.80
2019-04-04T01:10:35.876Z,21.17
2019-04-04T01:13:10.276Z,29.82
2019-04-04T01:15:44.869Z,19.65
2019-04-04T01:18:19.343Z,15.28
2019-04-04T01:20:53.956Z,20.37
2019-04-04T01:23:28.128Z,12.30
2019-04-04T01:26:03.415Z,13.90
2019-04-04T01:28:39.096Z,13.73
2019-04-04T01:31:14.990Z,14.55
2019-04-04T01:33:51.622Z,16.60
2019-04-04T01:36:26.028Z,14.60
2019-04-04T01:39:00.823Z,22.03
2019-04-04T01:41:37.070Z,20.23
2019-04-04T01:44:11.832Z,15.83
2019-04-04T01:49:21.241Z,13.00
2019-04-04T01:51:57.661Z,12.13
2019-04-04T01:54:32.800Z,13.43
2019-04-04T01:57:08.035Z,16.60
2019-04-04T01:59:43.834Z,11.70
2019-04-04T02:02:33.674Z,18.00
2019-04-04T02:05:08.296Z,15.88
2019-04-04T02:07:42.883Z,17.82
2019-04-04T02:10:17.293Z,16.62
2019-04-04T02:12:51.725Z,18.47
2019-04-04T02:15:25.954Z,21.47
2019-04-04T02:18:00.338Z,20.15
2019-04-04T02:20:35.277Z,22.60
2019-04-04T02:23:09.718Z,24.73
2019-04-04T02:25:44.078Z,67.43
2019-04-04T02:28:18.329Z,24.10
2019-04-04T02:30:53.281Z,21.97
2019-04-04T02:33:32.196Z,20.57
2019-04-04T02:36:03.923Z,22.13
2019-04-04T02:38:38.086Z,21.17
2019-04-04T02:41:15.013Z,22.75
2019-04-04T02:43:48.302Z,17.57
2019-04-04T02:46:22.905Z,20.25
2019-04-04T02:51:31.287Z,18.92
2019-04-04T02:54:05.715Z,19.57
2019-04-04T02:59:12.942Z,16.15
2019-04-04T03:01:47.286Z,20.62
2019-04-04T03:04:21.683Z,21.17
2019-04-04T03:06:58.485Z,17.00
2019-04-04T03:09:32.277Z,18.90
2019-04-04T03:12:06.655Z,22.83
2019-04-04T03:14:40.955Z,20.10
2019-04-04T03:22:21.117Z,24.23
2019-04-04T03:24:55.620Z,19.80
2019-04-04T03:27:29.958Z,22.85
2019-04-04T03:30:04.290Z,15.57
2019-04-04T03:32:38.765Z,18.73
2019-04-04T03:35:13.029Z,14.68
2019-04-04T03:37:47.349Z,17.80
2019-04-04T03:40:24.748Z,14.40
2019-04-04T03:42:57.895Z,18.12
2019-04-04T03:48:04.958Z,18.43
2019-04-04T03:50:39.300Z,19.10
2019-04-04T03:53:16.332Z,20.72
2019-04-04T03:55:49.944Z,20.32
2019-04-04T03:58:27.069Z,21.17
2019-04-04T04:03:32.918Z,23.05
2019-04-04T04:06:09.113Z,27.30
2019-04-04T04:08:43.287Z,26.33
2019-04-04T04:11:17.681Z,21.17
2019-04-04T04:13:52.253Z,22.37
2019-04-04T04:16:26.706Z,21.37
2019-04-04T04:19:00.993Z,20.13
2019-04-04T04:21:35.291Z,22.42
2019-04-04T04:24:09.693Z,22.55
2019-04-04T04:26:44.080Z,27.15
2019-04-04T04:29:18.315Z,20.43
2019-04-04T04:31:52.702Z,20.82
2019-04-04T04:34:27.074Z,23.80
2019-04-04T04:37:01.320Z,21.40
2019-04-04T04:39:40.769Z,18.45
2019-04-04T04:42:11.962Z,23.17
2019-04-04T04:44:46.299Z,19.40
2019-04-04T04:47:23.827Z,29.92
2019-04-04T04:49:56.938Z,21.53
2019-04-04T04:55:04.918Z,34.05
2019-04-04T04:57:39.281Z,26.23
2019-04-04T05:00:13.976Z,25.80
2019-04-04T05:02:52.792Z,23.93
2019-04-04T05:05:25.916Z,25.05
2019-04-04T05:08:00.277Z,25.37
2019-04-04T05:10:34.677Z,28.42
2019-04-04T05:13:08.923Z,25.60
2019-04-04T05:18:16.933Z,29.07
2019-04-04T05:20:51.564Z,22.55
2019-04-04T05:23:25.886Z,24.30
2019-04-04T05:28:34.695Z,29.20
2019-04-04T05:31:09.227Z,23.93
2019-04-04T05:33:43.678Z,29.77
2019-04-04T05:36:18.066Z,29.77
2019-04-04T05:38:52.319Z,28.37
2019-04-04T05:41:27.362Z,25.73
2019-04-04T05:44:02.714Z,25.80
2019-04-04T05:46:36.944Z,32.33
2019-04-04T05:49:11.672Z,22.97
2019-04-04T05:51:48.191Z,24.12
2019-04-04T05:54:22.130Z,27.40
2019-04-04T05:56:56.676Z,25.32
2019-04-04T06:02:03.945Z,26.40
2019-04-04T06:04:38.301Z,21.17
2019-04-04T06:07:16.187Z,24.25
2019-04-04T06:12:24.719Z,27.07
2019-04-04T06:15:00.314Z,25.73
2019-04-04T06:17:34.341Z,21.80
2019-04-04T06:20:10.544Z,23.83
2019-04-04T06:22:44.936Z,24.05
2019-04-04T06:25:19.259Z,27.03
2019-04-04T06:27:53.924Z,25.57
2019-04-04T06:30:28.272Z,24.98
2019-04-04T06:33:04.731Z,24.23
2019-04-04T06:35:39.962Z,23.87
2019-04-04T06:38:14.668Z,25.55
2019-04-04T06:40:49.273Z,22.30
2019-04-04T06:43:23.671Z,24.97
2019-04-04T06:45:58.280Z,23.10
2019-04-04T06:48:33.754Z,20.73
2019-04-04T06:51:08.311Z,20.37
2019-04-04T06:53:42.664Z,18.55
2019-04-04T06:56:16.942Z,19.07
2019-04-04T06:58:51.116Z,25.05
2019-04-04T07:01:25.561Z,21.42
2019-04-04T07:04:02.769Z,13.48
2019-04-04T07:09:10.291Z,11.35
2019-04-04T07:11:44.701Z,19.25
2019-04-04T07:14:19.931Z,13.93
2019-04-04T07:16:54.323Z,10.58
2019-04-04T07:19:28.871Z,13.10
2019-04-04T07:24:36.087Z,18.17
2019-04-04T07:27:12.288Z,10.37
2019-04-04T07:29:46.754Z,12.63
2019-04-04T07:32:21.032Z,15.75
2019-04-04T07:34:55.666Z,11.55
2019-04-04T07:37:31.271Z,14.25
2019-04-04T07:40:05.935Z,12.28
2019-04-04T07:42:40.472Z,13.67
2019-04-04T07:45:16.787Z,13.08
2019-04-04T07:50:26.254Z,90.45
2019-04-04T07:53:03.883Z,23.83
2019-04-04T07:55:37.750Z,21.05
2019-04-04T08:00:46.270Z,15.25
2019-04-04T08:03:21.099Z,15.28
2019-04-04T08:05:55.650Z,15.37
2019-04-04T08:08:30.273Z,13.78
2019-04-04T08:11:04.871Z,14.43
2019-04-04T08:13:39.276Z,11.70
2019-04-04T08:16:13.924Z,14.87
2019-04-04T08:21:27.397Z,10.50
2019-04-04T08:24:02.093Z,14.53
2019-04-04T08:26:36.628Z,12.45
2019-04-04T08:29:11.329Z,13.22
2019-04-04T08:31:45.936Z,13.78
2019-04-04T08:34:20.543Z,13.80
2019-04-04T08:36:55.068Z,9.03
2019-04-04T08:39:29.287Z,10.93
2019-04-04T08:42:04.273Z,10.43
2019-04-04T08:44:38.686Z,10.63
2019-04-04T08:49:46.136Z,9.80
2019-04-04T08:52:20.963Z,8.10
2019-04-04T08:54:55.635Z,7.37
2019-04-04T08:57:30.122Z,7.50
2019-04-04T09:00:04.879Z,8.23
2019-04-04T09:02:39.690Z,7.93
2019-04-04T09:07:47.322Z,6.70
2019-04-04T09:10:22.276Z,7.23
2019-04-04T09:12:56.883Z,7.83
2019-04-04T09:15:31.277Z,6.40
2019-04-04T09:18:05.751Z,11.28
2019-04-04T09:23:13.938Z,6.40
2019-04-04T09:25:49.325Z,5.60
2019-04-04T09:28:24.272Z,5.58
2019-04-04T09:30:58.696Z,5.53
2019-04-04T09:36:06.304Z,5.50
2019-04-04T09:38:40.877Z,4.80
2019-04-04T09:41:15.298Z,3.63
2019-04-04T09:43:50.251Z,3.57
2019-04-04T09:46:25.124Z,3.93
2019-04-04T09:48:59.797Z,3.40
2019-04-04T09:54:07.715Z,2.87
2019-04-04T09:56:42.286Z,2.67
2019-04-04T09:59:16.868Z,2.73
2019-04-04T10:01:51.267Z,3.15
2019-04-04T10:04:25.703Z,3.03
2019-04-04T10:07:00.334Z,3.67
2019-04-04T10:09:35.114Z,3.10
2019-04-04T10:12:09.891Z,3.53
2019-04-04T10:14:44.330Z,3.17
2019-04-04T10:17:18.747Z,3.97
2019-04-04T10:25:00.284Z,3.60
2019-04-04T10:27:34.785Z,2.80
2019-04-04T10:32:42.335Z,3.55
2019-04-04T10:35:16.781Z,4.00
2019-04-04T10:40:23.891Z,3.35
2019-04-04T10:42:58.506Z,4.13
2019-04-04T10:45:32.917Z,4.20
2019-04-04T10:48:07.675Z,8.03
2019-04-04T10:50:42.323Z,4.23
2019-04-04T10:53:17.106Z,3.97
2019-04-04T10:55:51.660Z,3.60
2019-04-04T10:58:25.944Z,3.70
2019-04-04T11:01:00.272Z,3.90
2019-04-04T11:03:34.716Z,4.17
2019-04-04T11:08:41.918Z,3.90
2019-04-04T11:11:16.511Z,3.72
2019-04-04T11:13:50.921Z,3.73
2019-04-04T11:16:30.358Z,4.07
2019-04-04T11:19:01.320Z,4.40
2019-04-04T11:21:35.707Z,7.30
2019-04-04T11:24:09.879Z,4.20
2019-04-04T11:26:44.285Z,3.70
2019-04-04T11:29:18.670Z,3.90
2019-04-04T11:31:53.314Z,3.83
2019-04-04T11:34:27.695Z,4.30
2019-04-04T11:39:35.288Z,5.20
2019-04-04T11:42:09.680Z,6.57
2019-04-04T11:49:51.103Z,4.90
2019-04-04T11:52:25.327Z,4.63
2019-04-04T11:55:00.761Z,5.23
2019-04-04T11:57:35.074Z,4.20
2019-04-04T12:00:14.098Z,4.40
2019-04-04T12:02:48.657Z,5.78
2019-04-04T12:07:55.881Z,5.00
2019-04-04T12:10:30.300Z,5.07
2019-04-04T12:13:04.708Z,4.93
2019-04-04T12:15:39.291Z,5.10
2019-04-04T12:18:13.934Z,5.37
2019-04-04T12:20:48.297Z,4.77
2019-04-04T12:23:22.698Z,5.73
2019-04-04T12:28:30.305Z,7.33
2019-04-04T12:31:05.674Z,8.58
2019-04-04T12:36:24.012Z,7.30
2019-04-04T12:38:49.630Z,7.53
2019-04-04T12:41:24.275Z,7.03
2019-04-04T12:44:00.103Z,7.13
2019-04-04T12:46:34.725Z,7.10
2019-04-04T12:49:09.304Z,10.08
2019-04-04T12:51:44.278Z,6.37
2019-04-04T12:54:18.715Z,6.47
2019-04-04T13:01:56.644Z,6.20
2019-04-04T13:04:32.218Z,5.80
2019-04-04T13:07:07.067Z,6.37
2019-04-04T13:09:41.698Z,6.50
2019-04-04T13:14:49.324Z,5.97
2019-04-04T13:17:23.794Z,8.28
2019-04-04T13:22:31.159Z,5.50
2019-04-04T13:25:07.273Z,5.53
2019-04-04T13:27:42.127Z,5.45
2019-04-04T13:30:18.081Z,5.10
2019-04-04T13:32:52.677Z,5.30
2019-04-04T13:40:44.710Z,5.60
2019-04-04T13:43:11.322Z,5.60
2019-04-04T13:45:45.869Z,5.23
2019-04-04T13:48:20.673Z,5.05
2019-04-04T13:53:28.365Z,16.30
2019-04-04T13:56:03.285Z,6.27
2019-04-04T13:58:39.226Z,10.43
2019-04-04T14:01:13.860Z,7.37
2019-04-04T14:03:48.626Z,5.55
2019-04-04T14:06:23.271Z,44.50
2019-04-04T14:08:57.865Z,8.00
2019-04-04T14:11:32.514Z,5.33
2019-04-04T14:14:07.557Z,8.83
2019-04-04T14:16:42.265Z,5.60
2019-04-04T14:19:16.878Z,4.60
2019-04-04T14:21:51.274Z,4.77
2019-04-04T14:24:26.270Z,4.80
2019-04-04T14:27:00.857Z,6.00
2019-04-04T14:34:41.255Z,4.30
2019-04-04T14:37:16.776Z,4.40
2019-04-04T14:42:24.664Z,4.07
2019-04-04T14:44:59.901Z,4.13
2019-04-04T14:47:35.326Z,4.53
2019-04-04T14:50:10.271Z,4.03
2019-04-04T14:52:45.105Z,3.97
2019-04-04T14:55:19.668Z,3.70
2019-04-04T15:00:27.498Z,5.13
2019-04-04T15:03:02.287Z,5.15
2019-04-04T15:05:36.872Z,5.30
2019-04-04T15:08:11.312Z,5.20
2019-04-04T15:10:45.935Z,4.47
2019-04-04T15:13:20.700Z,3.75
2019-04-04T15:16:17.513Z,4.57
2019-04-04T15:18:52.065Z,4.17
2019-04-04T15:21:26.664Z,3.43
2019-04-04T15:24:01.324Z,3.70
2019-04-04T15:26:36.215Z,4.00
2019-04-04T15:29:10.667Z,3.90
2019-04-04T15:31:44.935Z,4.50
2019-04-04T15:34:19.388Z,4.42
2019-04-04T15:36:53.864Z,3.93
2019-04-04T15:39:28.111Z,3.80
2019-04-04T15:42:02.562Z,4.37
2019-04-04T15:44:37.106Z,3.47
2019-04-04T15:47:11.641Z,5.00
2019-04-04T15:49:46.286Z,5.90
2019-04-04T15:52:20.757Z,4.20
2019-04-04T15:54:55.272Z,3.73
2019-04-04T15:57:29.907Z,3.37
2019-04-04T16:00:04.267Z,4.27
2019-04-04T16:02:38.942Z,3.90
2019-04-04T16:05:13.590Z,4.60
2019-04-04T16:07:48.941Z,5.57
2019-04-04T16:10:23.090Z,4.00
2019-04-04T16:12:57.693Z,3.80
2019-04-04T16:15:31.938Z,8.70
2019-04-04T16:20:19.286Z,4.12
2019-04-04T16:22:53.687Z,4.30
2019-04-04T16:25:27.914Z,4.20
2019-04-04T16:28:02.261Z,7.03
2019-04-04T16:30:36.645Z,5.23
2019-04-04T16:33:11.099Z,28.80
2019-04-04T16:35:45.659Z,9.90
2019-04-04T16:38:22.816Z,6.60
2019-04-04T16:41:00.215Z,4.40
2019-04-04T16:43:33.291Z,6.03
2019-04-04T16:46:07.730Z,5.10
2019-04-04T16:48:42.270Z,4.75
2019-04-04T16:51:16.674Z,5.07
2019-04-04T16:53:50.938Z,5.70
2019-04-04T16:56:25.240Z,6.97
2019-04-04T16:58:59.672Z,5.30
2019-04-04T17:01:34.081Z,5.17
2019-04-04T17:04:08.648Z,9.87
2019-04-04T17:06:42.939Z,4.95
2019-04-04T17:09:17.322Z,19.33
2019-04-04T17:11:51.667Z,33.63
2019-04-04T17:14:25.943Z,11.73
2019-04-04T17:19:32.942Z,9.43
2019-04-04T17:22:07.328Z,8.40
2019-04-04T17:24:41.736Z,7.83
2019-04-04T17:29:48.939Z,5.70
2019-04-04T17:32:23.663Z,7.67
2019-04-04T17:34:58.094Z,6.40
2019-04-04T17:37:32.562Z,7.87
2019-04-04T17:40:07.810Z,6.53
2019-04-04T17:42:43.002Z,5.77
2019-04-04T17:45:19.674Z,5.53
2019-04-04T17:47:54.591Z,7.37
2019-04-04T17:50:30.108Z,7.95
2019-04-04T17:53:05.421Z,7.67
2019-04-04T17:55:40.167Z,5.85
2019-04-04T17:58:14.740Z,6.00
2019-04-04T18:01:56.794Z,6.85
2019-04-04T18:04:31.650Z,6.83
2019-04-04T18:07:06.353Z,6.80
2019-04-04T18:09:40.945Z,6.67
2019-04-04T18:12:16.926Z,6.70
2019-04-04T18:14:51.754Z,9.03
2019-04-04T18:20:00.272Z,22.20
2019-04-04T18:22:34.757Z,22.70
2019-04-04T18:25:09.781Z,7.97
2019-04-04T18:27:44.282Z,6.60
2019-04-04T18:30:19.273Z,6.20
2019-04-04T18:32:53.680Z,6.97
2019-04-04T18:35:28.812Z,7.97
2019-04-04T18:38:03.643Z,6.40
2019-04-04T18:40:39.095Z,7.37
2019-04-04T18:43:13.688Z,6.87
2019-04-04T18:45:48.258Z,6.60
2019-04-04T18:48:22.912Z,11.37
2019-04-04T18:50:57.277Z,6.67
2019-04-04T18:53:31.688Z,11.70
2019-04-04T18:56:06.273Z,11.18
2019-04-04T18:58:40.708Z,6.37
2019-04-04T19:06:21.116Z,7.40
2019-04-04T19:08:55.642Z,6.93
2019-04-04T19:11:30.104Z,6.50
2019-04-04T19:14:04.648Z,5.80
2019-04-04T19:16:41.535Z,6.00
2019-04-04T19:19:20.948Z,7.33
2019-04-04T19:21:55.390Z,5.20
2019-04-04T19:24:30.137Z,6.03
2019-04-04T19:27:05.248Z,11.80
2019-04-04T19:29:39.739Z,8.23
2019-04-04T19:32:14.118Z,8.77
2019-04-04T19:34:48.655Z,9.03
2019-04-04T19:37:23.123Z,8.57
2019-04-04T19:39:57.673Z,5.60
2019-04-04T19:45:10.329Z,5.33
2019-04-04T19:47:45.261Z,6.23
2019-04-04T19:50:19.950Z,6.57
2019-04-04T19:58:00.778Z,5.97
2019-04-04T20:03:11.283Z,5.90
2019-04-04T20:05:45.908Z,5.90
2019-04-04T20:10:53.790Z,7.87
2019-04-04T20:13:31.259Z,6.80
2019-04-04T20:16:05.112Z,8.18
2019-04-04T20:18:39.780Z,6.27
2019-04-04T20:21:14.281Z,6.80
2019-04-04T20:23:48.890Z,11.23
2019-04-04T20:26:23.944Z,5.93
2019-04-04T20:28:58.340Z,7.70
2019-04-04T20:31:32.958Z,6.53
2019-04-04T20:36:40.948Z,6.03
2019-04-04T20:39:15.331Z,6.47
2019-04-04T20:41:49.954Z,7.50
2019-04-04T20:44:24.663Z,6.90
2019-04-04T20:47:00.271Z,7.30
2019-04-04T20:49:36.002Z,6.77
2019-04-04T20:52:10.706Z,6.77
2019-04-04T20:54:45.277Z,6.17
2019-04-04T20:57:20.358Z,11.53
2019-04-04T20:59:54.979Z,32.28
2019-04-04T21:02:29.647Z,29.75
2019-04-04T21:05:04.283Z,39.93
2019-04-04T21:07:38.923Z,46.63
2019-04-04T21:10:13.674Z,46.40
2019-04-04T21:12:48.283Z,50.30
2019-04-04T21:15:22.944Z,57.63
2019-04-04T21:17:57.336Z,52.43
2019-04-04T21:20:34.972Z,56.30
2019-04-04T21:23:09.331Z,52.03
2019-04-04T21:25:43.762Z,53.20
2019-04-04T21:30:51.089Z,50.25
2019-04-04T21:33:25.689Z,52.13
2019-04-04T21:36:00.318Z,54.63
2019-04-04T21:38:34.950Z,59.23
2019-04-04T21:41:09.288Z,69.15
2019-04-04T21:43:43.685Z,69.73
2019-04-04T21:46:18.133Z,71.15
2019-04-04T21:48:52.666Z,64.33
2019-04-04T21:51:27.124Z,70.10
2019-04-04T21:54:01.740Z,82.27
2019-04-04T21:59:08.955Z,77.55
2019-04-04T22:04:16.740Z,76.67
2019-04-04T22:06:51.290Z,82.47
2019-04-04T22:09:25.969Z,76.55
2019-04-04T22:14:33.692Z,76.75
2019-04-04T22:17:08.366Z,76.70
2019-04-04T22:19:42.880Z,77.13
2019-04-04T22:22:17.291Z,82.88
2019-04-04T22:24:51.913Z,73.17
2019-04-04T22:27:26.294Z,75.30
2019-04-04T22:30:00.971Z,76.13
2019-04-04T22:32:35.709Z,82.10
2019-04-04T22:35:11.342Z,77.67
2019-04-04T22:37:46.698Z,90.67
2019-04-04T22:40:21.358Z,79.42
2019-04-04T22:42:56.304Z,76.77
2019-04-04T22:45:34.645Z,82.62
2019-04-04T22:48:09.970Z,81.60
2019-04-04T22:50:45.570Z,79.03
2019-04-04T22:53:20.298Z,71.37
2019-04-04T22:55:55.502Z,78.27
2019-04-04T22:58:30.414Z,75.05
2019-04-04T23:01:06.387Z,76.47
2019-04-04T23:03:40.949Z,75.25
2019-04-04T23:06:15.755Z,80.32
2019-04-04T23:08:50.391Z,84.90
2019-04-04T23:11:24.895Z,86.55
2019-04-04T23:16:32.117Z,86.20
2019-04-04T23:19:06.785Z,80.03
2019-04-04T23:21:40.965Z,83.17
2019-04-04T23:25:27.803Z,87.33
2019-04-04T23:30:35.049Z,84.47
2019-04-04T23:33:09.346Z,82.53
2019-04-04T23:35:43.898Z,81.20
2019-04-04T23:40:50.968Z,97.67
2019-04-04T23:43:25.348Z,92.62
2019-04-04T23:45:59.786Z,88.63
2019-04-04T23:48:33.959Z,91.30
2019-04-04T23:51:08.596Z,93.23
2019-04-04T23:53:42.971Z,92.27
2019-04-04T23:56:17.262Z,105.85
2019-04-04T23:58:51.696Z,84.07
